^^
Grace C. Lehan Memorial Weather Station Historical Data
Daily Summary for May 31, 2021 Units:  Metric    English   Both
Daily Weekly Monthly Yearly
  High: Low: Average:
Temperature: -4.8 °C -12.8 °C -8.1 °C
Dew Point: -8.9 °C -16.1 °C -13.6 °C
Humidity: 80% 48.5% 65%
Wind Speed: 6.3km/h 0km/h 1.1km/h
Wind Gust: 17.7km/h - -
Wind- - SE
Pressure: 1027.7 hPa 1022.2 hPa -
Precipitation: 0 mm    
 
 
Tabular Data for May 31, 2021
Time Temperature Dew Point Pressure Wind Wind Speed Wind Gust Humidity Rainfall Rate (Hourly) solar
00:04 -10.2 °C -13.7 °C 1025.6 hPa NNW 1.8 km/h 6.4 km/h 75.9% 0 mm 0 W/m2
00:09 -10.2 °C -13.6 °C 1025.6 hPa NNW 0.5 km/h 6.4 km/h 76% 0 mm 0 W/m2
00:14 -10.2 °C -13.6 °C 1026 hPa NNW 1 km/h 6.4 km/h 76% 0 mm 0 W/m2
00:19 -10.2 °C -13.6 °C 1026 hPa NNW 1.1 km/h 6.4 km/h 76% 0 mm 0 W/m2
00:24 -10.2 °C -13.6 °C 1026 hPa NNW 1.8 km/h 6.4 km/h 76% 0 mm 0 W/m2
00:29 -10.3 °C -13.7 °C 1026 hPa NNW 1.3 km/h 6.4 km/h 76% 0 mm 0 W/m2
00:34 -10.3 °C -13.7 °C 1026 hPa NNW 1.8 km/h 6.4 km/h 76% 0 mm 0 W/m2
00:39 -10.4 °C -13.8 °C 1026 hPa NNW 3.7 km/h 8 km/h 76% 0 mm 0 W/m2
00:44 -10.4 °C -13.7 °C 1025.6 hPa NNW 2.4 km/h 8 km/h 76.8% 0 mm 0 W/m2
00:49 -10.3 °C -13.6 °C 1026 hPa NNW 1.6 km/h 8 km/h 77% 0 mm 0 W/m2
00:54 -10.3 °C -13.5 °C 1026 hPa NNW 1.4 km/h 8 km/h 77% 0 mm 0 W/m2
00:59 -10.2 °C -13.4 °C 1026.3 hPa NNW 1.3 km/h 8 km/h 76.8% 0 mm 0 W/m2
01:04 -10.1 °C -13.5 °C 1026.3 hPa NNW 1.9 km/h 8 km/h 76% 0 mm 0 W/m2
01:09 -9.9 °C -13.4 °C 1026.3 hPa NNW 1.1 km/h 4.8 km/h 76% 0 mm 0 W/m2
01:14 -9.9 °C -13.4 °C 1026.3 hPa NNW 0.8 km/h 4.8 km/h 75.4% 0 mm 0 W/m2
01:19 -9.9 °C -13.5 °C 1026 hPa NNW 2.3 km/h 6.4 km/h 75% 0 mm 0 W/m2
01:24 -9.8 °C -13.4 °C 1026.3 hPa NNW 1.6 km/h 6.4 km/h 75% 0 mm 0 W/m2
01:29 -9.8 °C -13.6 °C 1026.3 hPa NNW 2.9 km/h 8 km/h 74.2% 0 mm 0 W/m2
01:34 -9.8 °C -13.6 °C 1026.3 hPa NNW 1.9 km/h 8 km/h 74% 0 mm 0 W/m2
01:39 -9.8 °C -13.6 °C 1026.3 hPa NNW 0.6 km/h 6.4 km/h 74% 0 mm 0 W/m2
01:44 -9.8 °C -13.6 °C 1026.3 hPa Calm   6.4 km/h 74% 0 mm 0 W/m2
01:49 -9.8 °C -13.6 °C 1026.6 hPa NNW 0.2 km/h 6.4 km/h 74% 0 mm 0 W/m2
01:54 -9.8 °C -13.6 °C 1026.6 hPa Calm   6.4 km/h 74% 0 mm 0 W/m2
01:59 -9.8 °C -13.6 °C 1026.6 hPa NNW 0.2 km/h 6.4 km/h 74% 0 mm 0 W/m2
02:04 -9.9 °C -13.8 °C 1026.6 hPa NNW 1 km/h 6.4 km/h 73.2% 0 mm 0 W/m2
02:09 -9.9 °C -13.9 °C 1026.6 hPa NNW 1 km/h 4.8 km/h 73% 0 mm 0 W/m2
02:14 -10.1 °C -14.1 °C 1026.6 hPa North 2.4 km/h 8 km/h 72.1% 0 mm 0 W/m2
02:19 -10.2 °C -14.3 °C 1026.6 hPa NNE 3.2 km/h 8 km/h 71.3% 0 mm 0 W/m2
02:24 -10.2 °C -14.4 °C 1026.6 hPa NE 1.3 km/h 8 km/h 71% 0 mm 0 W/m2
02:29 -10.3 °C -14.6 °C 1026.6 hPa NE 1.3 km/h 8 km/h 71% 0 mm 0 W/m2
02:34 -10.4 °C -14.6 °C 1026.6 hPa NE 1.3 km/h 8 km/h 71% 0 mm 0 W/m2
02:39 -10.4 °C -14.7 °C 1026.6 hPa NE 1 km/h 4.8 km/h 71% 0 mm 0 W/m2
02:44 -10.6 °C -14.8 °C 1026.6 hPa NE 1.3 km/h 6.4 km/h 71% 0 mm 0 W/m2
02:49 -10.6 °C -14.8 °C 1026.6 hPa NE 1.4 km/h 6.4 km/h 71% 0 mm 0 W/m2
02:54 -10.7 °C -14.9 °C 1026.6 hPa NE 2.6 km/h 6.4 km/h 71% 0 mm 0 W/m2
02:59 -10.8 °C -15 °C 1026.6 hPa NE 1.9 km/h 8 km/h 71% 0 mm 0 W/m2
03:04 -10.8 °C -15.1 °C 1026.6 hPa NE 0.5 km/h 8 km/h 71% 0 mm 0 W/m2
03:09 -10.9 °C -15.1 °C 1026.6 hPa NE 0.2 km/h 4.8 km/h 71% 0 mm 0 W/m2
03:14 -10.9 °C -15.2 °C 1026.6 hPa NE 0.2 km/h 4.8 km/h 71% 0 mm 0 W/m2
03:19 -11 °C -15.2 °C 1026.6 hPa NE 1.1 km/h 4.8 km/h 71% 0 mm 0 W/m2
03:24 -11.1 °C -15.2 °C 1026.6 hPa NE 0.8 km/h 4.8 km/h 71.5% 0 mm 0 W/m2
03:29 -11.1 °C -15.2 °C 1027 hPa NE 0.2 km/h 4.8 km/h 72% 0 mm 0 W/m2
03:34 -11.2 °C -15.2 °C 1027 hPa NE 0.6 km/h 4.8 km/h 72.2% 0 mm 0 W/m2
03:39 -11.3 °C -15.2 °C 1027 hPa NE 0.8 km/h 3.2 km/h 73% 0 mm 0 W/m2
03:44 -11.4 °C -15.2 °C 1027 hPa NE 1.1 km/h 6.4 km/h 73% 0 mm 0 W/m2
03:49 -11.4 °C -15.3 °C 1027 hPa NE 1.1 km/h 6.4 km/h 73% 0 mm 0 W/m2
03:54 -11.5 °C -15.4 °C 1027 hPa NE 1.4 km/h 6.4 km/h 73% 0 mm 0 W/m2
03:59 -11.6 °C -15.2 °C 1026.6 hPa NE 0.5 km/h 6.4 km/h 74% 0 mm 0 W/m2
04:00 -11.6 °C -15.3 °C 1026.6 hPa NE 1.6 km/h 6.4 km/h 74% 0 mm 0 W/m2
04:09 -11.6 °C -15.3 °C 1026.6 hPa NE 1.1 km/h 4.8 km/h 74% 0 mm 0 W/m2
04:14 -11.6 °C -15.3 °C 1026.3 hPa NE 1.3 km/h 6.4 km/h 74% 0 mm 0 W/m2
04:19 -11.7 °C -15.3 °C 1026.3 hPa NE 1.4 km/h 6.4 km/h 74% 0 mm 0 W/m2
04:24 -11.7 °C -15.3 °C 1026.6 hPa NE 1 km/h 6.4 km/h 74% 0 mm 0 W/m2
04:29 -11.7 °C -15.4 °C 1026.6 hPa NE 1 km/h 6.4 km/h 74% 0 mm 0 W/m2
04:34 -11.7 °C -15.4 °C 1027 hPa NE 0.2 km/h 6.4 km/h 74% 0 mm 0 W/m2
04:39 -11.8 °C -15.6 °C 1027 hPa NE 0.5 km/h 3.2 km/h 73.5% 0 mm 0 W/m2
04:44 -11.8 °C -15.5 °C 1027 hPa Calm   3.2 km/h 74% 0 mm 0 W/m2
04:49 -11.9 °C -15.6 °C 1027 hPa Calm   3.2 km/h 74% 0 mm 0 W/m2
04:54 -11.9 °C -15.6 °C 1027 hPa Calm   3.2 km/h 74% 0 mm 0 W/m2
04:59 -12 °C -15.7 °C 1027 hPa Calm   3.2 km/h 74% 0 mm 0 W/m2
05:04 -12.1 °C -15.8 °C 1027 hPa Calm   3.2 km/h 74% 0 mm 0 W/m2
05:09 -12.1 °C -15.8 °C 1027 hPa Calm     74% 0 mm 0 W/m2
05:14 -12.2 °C -15.9 °C 1027.3 hPa Calm     74% 0 mm 0 W/m2
05:19 -12.3 °C -15.9 °C 1027.3 hPa Calm     74.2% 0 mm 0 W/m2
05:24 -12.3 °C -15.8 °C 1027.3 hPa Calm     75% 0 mm 0 W/m2
05:29 -12.3 °C -15.8 °C 1027.3 hPa Calm     75% 0 mm 0 W/m2
05:34 -12.4 °C -15.9 °C 1027.3 hPa Calm     75% 0 mm 0 W/m2
05:39 -12.4 °C -15.9 °C 1027.3 hPa Calm     75% 0 mm 0 W/m2
05:44 -12.4 °C -15.9 °C 1027.3 hPa Calm     75% 0 mm 0 W/m2
05:49 -12.5 °C -16 °C 1027.7 hPa Calm     75% 0 mm 0 W/m2
05:54 -12.6 °C -16.1 °C 1027.7 hPa Calm     75% 0 mm 0 W/m2
05:59 -12.6 °C -16.1 °C 1027.3 hPa Calm     75.3% 0 mm 0 W/m2
06:04 -12.7 °C -16 °C 1027.7 hPa Calm     76% 0 mm 0 W/m2
06:09 -12.7 °C -16.1 °C 1027.7 hPa Calm     76% 0 mm 0 W/m2
06:14 -12.7 °C -16.1 °C 1027.7 hPa Calm     76% 0 mm 0 W/m2
06:19 -12.8 °C -16.1 °C 1027.7 hPa Calm     76% 0 mm 0 W/m2
06:24 -12.8 °C -16.1 °C 1027.7 hPa Calm     76% 0 mm 0 W/m2
06:29 -12.8 °C -16.1 °C 1027.7 hPa Calm     76.3% 0 mm 0 W/m2
06:34 -12.8 °C -16 °C 1027.7 hPa Calm     77% 0 mm 0 W/m2
06:39 -12.8 °C -16.1 °C 1027.7 hPa Calm     77% 0 mm 0 W/m2
06:44 -12.8 °C -16 °C 1027.7 hPa Calm     77% 0 mm 0 W/m2
06:49 -12.8 °C -16 °C 1027.3 hPa Calm     77% 0 mm 0 W/m2
06:54 -12.8 °C -16 °C 1027.3 hPa Calm     77% 0 mm 0 W/m2
06:59 -12.8 °C -15.9 °C 1027.3 hPa Calm     77% 0 mm 0 W/m2
07:04 -12.7 °C -15.9 °C 1027.7 hPa Calm     77% 0 mm 0 W/m2
07:09 -12.7 °C -15.8 °C 1027.3 hPa Calm     77% 0 mm 5 W/m2
07:14 -12.7 °C -15.8 °C 1027.3 hPa Calm     77% 0 mm 9 W/m2
07:19 -12.6 °C -15.8 °C 1027.3 hPa Calm     77% 0 mm 12 W/m2
07:24 -12.6 °C -15.8 °C 1027.7 hPa Calm     77% 0 mm 19 W/m2
07:29 -12.6 °C -15.7 °C 1027.7 hPa Calm     78% 0 mm 23 W/m2
07:34 -12.6 °C -15.7 °C 1027.7 hPa Calm     78% 0 mm 26 W/m2
07:39 -12.6 °C -15.7 °C 1027.7 hPa Calm     78.1% 0 mm 32 W/m2
07:44 -12.6 °C -15.4 °C 1027.3 hPa Calm     79% 0 mm 40 W/m2
07:49 -12.4 °C -15.3 °C 1027.3 hPa Calm     79% 0 mm 47 W/m2
07:54 -12.3 °C -15.2 °C 1027.3 hPa Calm     78.8% 0 mm 53 W/m2
07:59 -12.2 °C -15.2 °C 1027.7 hPa Calm     78% 0 mm 63 W/m2
08:00 -12.1 °C -15.3 °C 1027.7 hPa Calm     77% 0 mm 63 W/m2
08:09 -11.8 °C -15.1 °C 1027.3 hPa NE 2.4 km/h 6.4 km/h 76.1% 0 mm 76 W/m2
08:14 -11.6 °C -15 °C 1027.3 hPa NE 0.6 km/h 6.4 km/h 75.5% 0 mm 88 W/m2
08:19 -11.4 °C -14.9 °C 1027.3 hPa NE 1.6 km/h 6.4 km/h 74.9% 0 mm 95 W/m2
08:24 -11.2 °C -14.9 °C 1027.7 hPa NE 2.9 km/h 8 km/h 73.9% 0 mm 97 W/m2
08:29 -11.1 °C -15 °C 1027.7 hPa NE 1.9 km/h 8 km/h 73% 0 mm 97 W/m2
08:34 -11.1 °C -14.9 °C 1027.3 hPa NE 1 km/h 8 km/h 72.7% 0 mm 100 W/m2
08:39 -10.9 °C -14.8 °C 1027.7 hPa NE 1.3 km/h 8 km/h 73% 0 mm 98 W/m2
08:44 -10.7 °C -14.8 °C 1027.7 hPa NE 3.2 km/h 8 km/h 71.9% 0 mm 113 W/m2
08:49 -10.7 °C -14.9 °C 1027.3 hPa NE 4.5 km/h 8 km/h 71% 0 mm 128 W/m2
08:54 -10.6 °C -14.9 °C 1027.3 hPa NE 2.3 km/h 8 km/h 70.6% 0 mm 135 W/m2
08:59 -10.6 °C -14.8 °C 1027.3 hPa NE 2.1 km/h 12.9 km/h 70.6% 0 mm 141 W/m2
09:04 -10.4 °C -14.9 °C 1027.3 hPa NE 6.1 km/h 12.9 km/h 70% 0 mm 149 W/m2
09:09 -10.3 °C -14.7 °C 1027 hPa NE 3.2 km/h 12.9 km/h 70% 0 mm 163 W/m2
09:14 -10.2 °C -14.6 °C 1027 hPa NNE 2.1 km/h 12.9 km/h 70% 0 mm 169 W/m2
09:19 -10 °C -14.4 °C 1027 hPa NNE 2.3 km/h 12.9 km/h 69.9% 0 mm 158 W/m2
09:24 -9.9 °C -14.5 °C 1027 hPa Calm   12.9 km/h 69% 0 mm 179 W/m2
09:29 -9.8 °C -14.3 °C 1027 hPa NNE 0.2 km/h 12.9 km/h 69.1% 0 mm 183 W/m2
09:34 -9.6 °C -14.3 °C 1027 hPa NNE 2.3 km/h 12.9 km/h 68.4% 0 mm 195 W/m2
09:39 -9.4 °C -14.3 °C 1027 hPa NE 3.4 km/h 8 km/h 67.4% 0 mm 204 W/m2
09:44 -9.4 °C -14.3 °C 1027.3 hPa NE 3.4 km/h 8 km/h 67% 0 mm 200 W/m2
09:49 -9.2 °C -14.3 °C 1027.3 hPa North 4 km/h 11.3 km/h 66.6% 0 mm 199 W/m2
09:54 -9.1 °C -14.2 °C 1027.3 hPa NNW 2.6 km/h 11.3 km/h 66.6% 0 mm 255 W/m2
09:59 -8.8 °C -14.1 °C 1027.3 hPa NNE 2.9 km/h 11.3 km/h 65.4% 0 mm 237 W/m2
10:04 -8.7 °C -14.3 °C 1027.3 hPa NE 2.7 km/h 11.3 km/h 63.5% 0 mm 183 W/m2
10:09 -8.5 °C -14.1 °C 1027.3 hPa NE 2.6 km/h 8 km/h 64% 0 mm 183 W/m2
10:14 -8.4 °C -13.9 °C 1027.3 hPa NNE 3.1 km/h 9.7 km/h 64% 0 mm 197 W/m2
10:19 -8.3 °C -14.1 °C 1027.3 hPa NNW 5.3 km/h 14.5 km/h 62.9% 0 mm 193 W/m2
10:24 -8.3 °C -14.3 °C 1027.3 hPa NNW 5.8 km/h 17.7 km/h 62% 0 mm 179 W/m2
10:29 -8.3 °C -14.3 °C 1027.3 hPa NNE 6.3 km/h 17.7 km/h 61.7% 0 mm 185 W/m2
10:34 -8.4 °C -14.6 °C 1027.3 hPa ENE 3.5 km/h 17.7 km/h 61% 0 mm 211 W/m2
10:39 -8.4 °C -14.6 °C 1027.3 hPa NNE 2.6 km/h 9.7 km/h 61% 0 mm 213 W/m2
10:44 -8.3 °C -14.3 °C 1027.3 hPa NW 2.6 km/h 9.7 km/h 62.1% 0 mm 218 W/m2
10:49 -8.2 °C -14.1 °C 1027.3 hPa NNW 2.1 km/h 9.7 km/h 62.5% 0 mm 244 W/m2
10:54 -8 °C -14 °C 1027.3 hPa NNW 4.5 km/h 11.3 km/h 62% 0 mm 278 W/m2
10:59 -7.7 °C -13.8 °C 1027 hPa North 2.3 km/h 11.3 km/h 61.5% 0 mm 276 W/m2
11:04 -7.5 °C -13.6 °C 1027 hPa NNE 1.8 km/h 11.3 km/h 61.6% 0 mm 279 W/m2
11:09 -7.3 °C -13.6 °C 1027 hPa NNW 4.7 km/h 11.3 km/h 60.9% 0 mm 323 W/m2
11:14 -7.1 °C -13.4 °C 1026.6 hPa NNW 4.8 km/h 14.5 km/h 60.8% 0 mm 327 W/m2
11:19 -6.9 °C -13.4 °C 1027 hPa NNE 5.6 km/h 14.5 km/h 59.9% 0 mm 313 W/m2
11:24 -6.9 °C -13.8 °C 1027 hPa NNE 4 km/h 14.5 km/h 58% 0 mm 311 W/m2
11:29 -6.9 °C -13.7 °C 1026.6 hPa North 4 km/h 14.5 km/h 58% 0 mm 258 W/m2
11:34 -6.8 °C -13.7 °C 1026.6 hPa North 4.3 km/h 14.5 km/h 58.2% 0 mm 223 W/m2
11:39 -6.8 °C -13.7 °C 1026.3 hPa NNW 3.4 km/h 14.5 km/h 57.9% 0 mm 221 W/m2
11:44 -6.9 °C -13.9 °C 1026.3 hPa ENE 4 km/h 14.5 km/h 57.2% 0 mm 237 W/m2
11:49 -6.9 °C -13.8 °C 1026 hPa NE 6.1 km/h 14.5 km/h 58% 0 mm 241 W/m2
11:54 -6.9 °C -13.7 °C 1026 hPa North 3.4 km/h 14.5 km/h 58.4% 0 mm 232 W/m2
11:59 -6.8 °C -13.7 °C 1026 hPa NE 4.5 km/h 14.5 km/h 58.2% 0 mm 227 W/m2
12:09 -6.9 °C -13.8 °C 1025.6 hPa NE 3.9 km/h 9.7 km/h 58% 0 mm 229 W/m2
12:14 -6.8 °C -13.6 °C 1025.6 hPa NE 5.3 km/h 16.1 km/h 58.7% 0 mm 221 W/m2
12:19 -6.9 °C -13.9 °C 1025.3 hPa ENE 5 km/h 16.1 km/h 57.1% 0 mm 229 W/m2
12:24 -7 °C -13.8 °C 1025.3 hPa NE 1.6 km/h 16.1 km/h 58.3% 0 mm 241 W/m2
12:29 -6.8 °C -13.3 °C 1025.3 hPa North 4.5 km/h 16.1 km/h 59.6% 0 mm 241 W/m2
12:34 -6.6 °C -13.2 °C 1025.3 hPa NNW 2.9 km/h 16.1 km/h 59% 0 mm 237 W/m2
12:39 -6.4 °C -13.2 °C 1025.3 hPa North 3.5 km/h 12.9 km/h 58.2% 0 mm 234 W/m2
12:44 -6.2 °C -13.4 °C 1024.9 hPa NE 4.5 km/h 12.9 km/h 56.7% 0 mm 218 W/m2
12:49 -6.2 °C -13.7 °C 1025.3 hPa NE 3.7 km/h 12.9 km/h 55.6% 0 mm 207 W/m2
12:54 -6.2 °C -13.7 °C 1025.3 hPa NE 1.9 km/h 12.9 km/h 55.4% 0 mm 214 W/m2
12:59 -6.1 °C -13.4 °C 1025.3 hPa NE 2.6 km/h 12.9 km/h 56% 0 mm 220 W/m2
13:04 -5.9 °C -13.3 °C 1025.3 hPa NNE 2.6 km/h 12.9 km/h 55.9% 0 mm 218 W/m2
13:09 -5.8 °C -13.3 °C 1025.3 hPa NNE 2.4 km/h 8 km/h 55.2% 0 mm 211 W/m2
13:14 -5.7 °C -13.3 °C 1025.3 hPa NNE 1.9 km/h 8 km/h 54.9% 0 mm 200 W/m2
13:19 -5.6 °C -13.3 °C 1025.3 hPa NNE 0.5 km/h 8 km/h 54.8% 0 mm 193 W/m2
13:24 -5.7 °C -13.6 °C 1025.3 hPa Calm   8 km/h 53.6% 0 mm 186 W/m2
13:29 -5.8 °C -13.7 °C 1025.3 hPa NE 0.5 km/h 8 km/h 53.2% 0 mm 176 W/m2
13:34 -5.7 °C -13.4 °C 1025.3 hPa Calm   8 km/h 54.8% 0 mm 181 W/m2
13:39 -5.7 °C -13.6 °C 1024.9 hPa NE 3.5 km/h 6.4 km/h 53.5% 0 mm 190 W/m2
13:44 -5.7 °C -13.7 °C 1024.9 hPa NE 2.3 km/h 6.4 km/h 53.1% 0 mm 229 W/m2
13:49 -5.7 °C -13.7 °C 1024.9 hPa Calm   6.4 km/h 53.3% 0 mm 229 W/m2
13:54 -5.7 °C -13.7 °C 1024.9 hPa NNE 2.9 km/h 8 km/h 53.3% 0 mm 213 W/m2
13:59 -5.6 °C -13.6 °C 1024.9 hPa NNE 0.2 km/h 8 km/h 53.4% 0 mm 190 W/m2
14:04 -5.4 °C -13.5 °C 1025.3 hPa Calm   8 km/h 53% 0 mm 174 W/m2
14:09 -5.3 °C -13.6 °C 1025.3 hPa Calm     52.3% 0 mm 165 W/m2
14:14 -5.3 °C -13.6 °C 1025.3 hPa Calm     52% 0 mm 162 W/m2
14:19 -5.2 °C -13.6 °C 1025.3 hPa Calm     51.7% 0 mm 169 W/m2
14:24 -5.2 °C -13.7 °C 1025.3 hPa Calm     51% 0 mm 169 W/m2
14:29 -5.2 °C -13.5 °C 1025.3 hPa Calm     52% 0 mm 172 W/m2
14:34 -5.1 °C -13.6 °C 1025.3 hPa Calm     51.2% 0 mm 176 W/m2
14:39 -5.1 °C -13.9 °C 1025.6 hPa Calm     50% 0 mm 153 W/m2
14:44 -5.1 °C -14.1 °C 1025.3 hPa Calm     49.3% 0 mm 137 W/m2
14:49 -5.2 °C -14.1 °C 1025.6 hPa Calm     49.3% 0 mm 146 W/m2
14:54 -5.2 °C -13.8 °C 1025.6 hPa Calm     50.8% 0 mm 158 W/m2
14:59 -5.1 °C -13.7 °C 1025.3 hPa Calm     50.7% 0 mm 160 W/m2
15:04 -5 °C -13.6 °C 1025.3 hPa Calm     50.8% 0 mm 123 W/m2
15:09 -4.9 °C -13.5 °C 1025.3 hPa Calm     50.8% 0 mm 120 W/m2
15:14 -4.8 °C -13.5 °C 1025.6 hPa Calm     50.6% 0 mm 95 W/m2
15:19 -4.8 °C -14 °C 1025.6 hPa Calm     48.5% 0 mm 76 W/m2
15:24 -4.8 °C -13.6 °C 1025.3 hPa Calm     50.2% 0 mm 76 W/m2
15:29 -4.8 °C -13.6 °C 1025.3 hPa Calm     50.2% 0 mm 74 W/m2
15:34 -4.8 °C -13.7 °C 1025.3 hPa Calm     50% 0 mm 56 W/m2
15:39 -4.9 °C -13.8 °C 1024.9 hPa Calm     49.9% 0 mm 54 W/m2
15:44 -5 °C -14.1 °C 1024.9 hPa Calm     49% 0 mm 53 W/m2
15:49 -5.1 °C -14 °C 1024.9 hPa Calm     49.4% 0 mm 53 W/m2
15:54 -5.1 °C -13.9 °C 1024.9 hPa Calm     50% 0 mm 49 W/m2
15:59 -5.2 °C -13.9 °C 1024.9 hPa Calm     50.2% 0 mm 46 W/m2
16:00 -5.1 °C -13.7 °C 1024.9 hPa Calm     51% 0 mm 42 W/m2
16:09 -5.1 °C -13.7 °C 1024.9 hPa Calm     50.8% 0 mm 40 W/m2
16:14 -5.1 °C -13.9 °C 1024.9 hPa Calm     50% 0 mm 46 W/m2
16:19 -5.2 °C -14.1 °C 1024.9 hPa Calm     49.4% 0 mm 46 W/m2
16:24 -5.2 °C -13.9 °C 1024.9 hPa Calm     50.1% 0 mm 42 W/m2
16:29 -5.2 °C -13.4 °C 1024.9 hPa Calm     52.2% 0 mm 37 W/m2
16:34 -5.1 °C -13.6 °C 1024.9 hPa Calm     51.3% 0 mm 28 W/m2
16:39 -5.2 °C -13.8 °C 1024.9 hPa Calm     50.7% 0 mm 21 W/m2
16:44 -5.2 °C -13.7 °C 1024.9 hPa Calm     51% 0 mm 16 W/m2
16:49 -5.2 °C -13.7 °C 1024.9 hPa Calm     51.2% 0 mm 12 W/m2
16:54 -5.2 °C -13.7 °C 1024.9 hPa Calm     51% 0 mm 9 W/m2
16:59 -5.2 °C -13.4 °C 1024.9 hPa Calm     52.1% 0 mm 5 W/m2
17:04 -5.2 °C -13.3 °C 1024.9 hPa Calm     52.8% 0 mm 0 W/m2
17:09 -5.2 °C -13.3 °C 1024.9 hPa Calm     53.2% 0 mm 0 W/m2
17:14 -5.2 °C -13.2 °C 1024.6 hPa Calm     53.4% 0 mm 0 W/m2
17:19 -5.2 °C -13 °C 1024.6 hPa Calm     54.4% 0 mm 0 W/m2
17:24 -5.3 °C -13.1 °C 1024.6 hPa Calm     54.3% 0 mm 0 W/m2
17:29 -5.3 °C -13.3 °C 1024.6 hPa Calm     53.3% 0 mm 0 W/m2
17:34 -5.3 °C -13.3 °C 1024.9 hPa Calm     53% 0 mm 0 W/m2
17:39 -5.3 °C -13.6 °C 1024.9 hPa Calm     52.1% 0 mm 0 W/m2
17:44 -5.3 °C -13.5 °C 1024.6 hPa Calm     52.7% 0 mm 0 W/m2
17:49 -5.3 °C -13.3 °C 1024.6 hPa Calm     53.5% 0 mm 0 W/m2
17:54 -5.3 °C -13.2 °C 1024.9 hPa Calm     54% 0 mm 0 W/m2
17:59 -5.3 °C -13.2 °C 1024.9 hPa Calm     54.1% 0 mm 0 W/m2
18:04 -5.3 °C -12.8 °C 1024.9 hPa Calm     55.5% 0 mm 0 W/m2
18:09 -5.3 °C -12.9 °C 1024.9 hPa Calm     55% 0 mm 0 W/m2
18:14 -5.3 °C -12.9 °C 1024.9 hPa Calm     55% 0 mm 0 W/m2
18:19 -5.3 °C -12.8 °C 1024.9 hPa Calm     55.3% 0 mm 0 W/m2
18:24 -5.3 °C -12.7 °C 1024.9 hPa Calm     56% 0 mm 0 W/m2
18:29 -5.3 °C -12.8 °C 1024.9 hPa Calm     55.6% 0 mm 0 W/m2
18:34 -5.3 °C -12.7 °C 1025.3 hPa Calm     56% 0 mm 0 W/m2
18:39 -5.3 °C -12.7 °C 1025.3 hPa Calm     56% 0 mm 0 W/m2
18:44 -5.3 °C -12.6 °C 1025.3 hPa Calm     56.4% 0 mm 0 W/m2
18:49 -5.3 °C -12.3 °C 1024.9 hPa Calm     57.5% 0 mm 0 W/m2
18:54 -5.3 °C -12.3 °C 1024.9 hPa Calm     57.5% 0 mm 0 W/m2
18:59 -5.2 °C -12.2 °C 1024.9 hPa Calm     57.9% 0 mm 0 W/m2
19:04 -5.2 °C -12.4 °C 1024.9 hPa Calm     57% 0 mm 0 W/m2
19:09 -5.2 °C -12.4 °C 1024.6 hPa Calm     57% 0 mm 0 W/m2
19:14 -5.3 °C -12.4 °C 1024.6 hPa Calm     57% 0 mm 0 W/m2
19:19 -5.3 °C -12.5 °C 1024.6 hPa Calm     57% 0 mm 0 W/m2
19:24 -5.4 °C -12.6 °C 1024.6 hPa Calm     57% 0 mm 0 W/m2
19:29 -5.4 °C -12.4 °C 1024.6 hPa Calm     57.7% 0 mm 0 W/m2
19:34 -5.4 °C -12.5 °C 1024.6 hPa Calm     57.5% 0 mm 0 W/m2
19:39 -5.4 °C -12.6 °C 1024.6 hPa Calm     57.4% 0 mm 0 W/m2
19:44 -5.4 °C -12.3 °C 1024.6 hPa Calm     58.3% 0 mm 0 W/m2
19:49 -5.4 °C -12.2 °C 1024.6 hPa Calm     58.6% 0 mm 0 W/m2
19:54 -5.4 °C -12.3 °C 1024.6 hPa Calm     58% 0 mm 0 W/m2
19:59 -5.3 °C -12.3 °C 1024.6 hPa Calm     58% 0 mm 0 W/m2
20:09 -5.4 °C -12.3 °C 1024.6 hPa Calm     58% 0 mm 0 W/m2
20:14 -5.4 °C -12.3 °C 1024.6 hPa Calm     58.2% 0 mm 0 W/m2
20:19 -5.4 °C -12.3 °C 1024.6 hPa Calm     58% 0 mm 0 W/m2
20:24 -5.3 °C -12.1 °C 1024.6 hPa Calm     58.9% 0 mm 0 W/m2
20:29 -5.3 °C -12.1 °C 1024.6 hPa Calm     59% 0 mm 0 W/m2
20:34 -5.3 °C -12.1 °C 1024.3 hPa Calm     59% 0 mm 0 W/m2
20:39 -5.3 °C -12.2 °C 1024.3 hPa Calm     58.7% 0 mm 0 W/m2
20:44 -5.3 °C -12.3 °C 1024.3 hPa Calm     58.2% 0 mm 0 W/m2
20:49 -5.3 °C -12.3 °C 1024.3 hPa Calm     58% 0 mm 0 W/m2
20:54 -5.4 °C -12.3 °C 1024.3 hPa NE 0.8 km/h 9.7 km/h 58% 0 mm 0 W/m2
20:59 -5.4 °C -12.2 °C 1024.3 hPa Calm   9.7 km/h 58.9% 0 mm 0 W/m2
21:04 -5.4 °C -12 °C 1024.3 hPa NE 2.1 km/h 9.7 km/h 59.7% 0 mm 0 W/m2
21:09 -5.4 °C -11.9 °C 1024.3 hPa NE 0.3 km/h 9.7 km/h 59.9% 0 mm 0 W/m2
21:14 -5.4 °C -11.9 °C 1023.9 hPa Calm   9.7 km/h 60% 0 mm 0 W/m2
21:19 -5.4 °C -11.8 °C 1023.9 hPa Calm   9.7 km/h 60.5% 0 mm 0 W/m2
21:24 -5.4 °C -11.8 °C 1023.9 hPa North 3.4 km/h 9.7 km/h 60.7% 0 mm 0 W/m2
21:29 -5.4 °C -11.7 °C 1023.9 hPa North 0.2 km/h 9.7 km/h 61% 0 mm 0 W/m2
21:34 -5.4 °C -11.7 °C 1023.9 hPa NNW 1.8 km/h 9.7 km/h 61% 0 mm 0 W/m2
21:39 -5.4 °C -11.6 °C 1023.9 hPa Calm   9.7 km/h 61.9% 0 mm 0 W/m2
21:44 -5.4 °C -11.5 °C 1023.9 hPa NE 3.1 km/h 9.7 km/h 62% 0 mm 0 W/m2
21:49 -5.4 °C -11.5 °C 1023.9 hPa NE 2.7 km/h 9.7 km/h 62.3% 0 mm 0 W/m2
21:54 -5.4 °C -11.3 °C 1023.9 hPa Calm   9.7 km/h 63.4% 0 mm 0 W/m2
21:59 -5.5 °C -11 °C 1023.9 hPa Calm   9.7 km/h 65% 0 mm 0 W/m2
22:04 -5.6 °C -10.7 °C 1023.6 hPa Calm   9.7 km/h 66.8% 0 mm 0 W/m2
22:09 -5.6 °C -10.4 °C 1023.6 hPa Calm     68.4% 0 mm 0 W/m2
22:14 -5.6 °C -10.3 °C 1023.6 hPa Calm     69% 0 mm 0 W/m2
22:19 -5.6 °C -10.2 °C 1023.6 hPa Calm   1.6 km/h 70% 0 mm 0 W/m2
22:24 -5.7 °C -10.3 °C 1023.2 hPa NE 0.6 km/h 6.4 km/h 70% 0 mm 0 W/m2
22:29 -5.7 °C -10.2 °C 1023.2 hPa NE 0.2 km/h 6.4 km/h 70.8% 0 mm 0 W/m2
22:34 -5.8 °C -10.1 °C 1023.6 hPa NE 1 km/h 6.4 km/h 71.6% 0 mm 0 W/m2
22:39 -5.8 °C -10.1 °C 1023.2 hPa NE 0.2 km/h 4.8 km/h 72% 0 mm 0 W/m2
22:44 -5.9 °C -10 °C 1023.2 hPa Calm   4.8 km/h 72.5% 0 mm 0 W/m2
22:49 -5.9 °C -9.8 °C 1023.2 hPa NE 1.1 km/h 6.4 km/h 73.7% 0 mm 0 W/m2
22:54 -5.9 °C -9.7 °C 1022.9 hPa NE 0.5 km/h 6.4 km/h 74.3% 0 mm 0 W/m2
22:59 -5.9 °C -9.6 °C 1022.9 hPa Calm   6.4 km/h 75% 0 mm 0 W/m2
23:00 -5.9 °C -9.6 °C 1022.6 hPa Calm   6.4 km/h 75% 0 mm 0 W/m2
23:09 -5.9 °C -9.6 °C 1022.9 hPa North 1.8 km/h 8 km/h 75% 0 mm 0 W/m2
23:14 -5.9 °C -9.6 °C 1022.9 hPa North 4.7 km/h 9.7 km/h 75% 0 mm 0 W/m2
23:19 -5.9 °C -9.4 °C 1022.6 hPa North 5 km/h 11.3 km/h 76% 0 mm 0 W/m2
23:24 -5.9 °C -9.4 °C 1022.6 hPa North 4.8 km/h 11.3 km/h 76% 0 mm 0 W/m2
23:29 -5.9 °C -9.4 °C 1022.2 hPa NNW 4.3 km/h 11.3 km/h 76.5% 0 mm 0 W/m2
23:34 -5.9 °C -9.3 °C 1022.6 hPa NNW 6.3 km/h 14.5 km/h 77% 0 mm 0 W/m2
23:39 -5.9 °C -9.2 °C 1022.6 hPa North 3.1 km/h 14.5 km/h 77.6% 0 mm 0 W/m2
23:44 -5.9 °C -9.2 °C 1022.6 hPa NNW 5 km/h 17.7 km/h 78% 0 mm 0 W/m2
23:49 -6 °C -9.1 °C 1022.6 hPa North 4.7 km/h 17.7 km/h 78.7% 0 mm 0 W/m2
23:54 -6.1 °C -9.1 °C 1022.6 hPa North 4.3 km/h 17.7 km/h 79% 0 mm 0 W/m2
23:59 -6.1 °C -8.9 °C 1022.6 hPa North 2.9 km/h 17.7 km/h 80% 0 mm 0 W/m2
Hartford County Weather
Compliments of Weather Underground - 2 mb